sensor_id;sensor_type;location;lat;lon;timestamp;pressure;altitude;pressure_sealevel;temperature;humidity
60589;BME280;46421;48.610;9.334;2023-03-25T00:01:57;97419.78;;;9.15;83.22
60589;BME280;46421;48.610;9.334;2023-03-25T00:04:22;97415.13;;;9.17;82.44
60589;BME280;46421;48.610;9.334;2023-03-25T00:06:53;97418.22;;;9.06;82.78
60589;BME280;46421;48.610;9.334;2023-03-25T00:09:18;97423.78;;;9.11;85.68
60589;BME280;46421;48.610;9.334;2023-03-25T00:11:44;97438.44;;;9.07;85.64
60589;BME280;46421;48.610;9.334;2023-03-25T00:14:10;97451.97;;;8.97;88.53
60589;BME280;46421;48.610;9.334;2023-03-25T00:16:36;97441.66;;;8.79;90.82
60589;BME280;46421;48.610;9.334;2023-03-25T00:19:02;97470.91;;;8.70;91.71
60589;BME280;46421;48.610;9.334;2023-03-25T00:21:27;97490.47;;;8.69;90.49
60589;BME280;46421;48.610;9.334;2023-03-25T00:23:52;97485.50;;;8.66;93.83
60589;BME280;46421;48.610;9.334;2023-03-25T00:26:18;97476.16;;;8.56;92.82
60589;BME280;46421;48.610;9.334;2023-03-25T00:28:43;97483.13;;;8.72;92.34
60589;BME280;46421;48.610;9.334;2023-03-25T00:31:13;97469.66;;;8.58;87.37
60589;BME280;46421;48.610;9.334;2023-03-25T00:33:38;97450.41;;;8.64;85.53
60589;BME280;46421;48.610;9.334;2023-03-25T00:36:05;97456.53;;;8.65;85.53
60589;BME280;46421;48.610;9.334;2023-03-25T00:38:33;97462.19;;;8.62;84.33
60589;BME280;46421;48.610;9.334;2023-03-25T00:43:38;97438.59;;;8.52;86.50
60589;BME280;46421;48.610;9.334;2023-03-25T00:46:04;97440.97;;;8.47;85.88
60589;BME280;46421;48.610;9.334;2023-03-25T00:48:30;97442.59;;;8.48;86.01
60589;BME280;46421;48.610;9.334;2023-03-25T00:50:55;97442.47;;;8.41;84.67
60589;BME280;46421;48.610;9.334;2023-03-25T00:53:20;97446.97;;;8.32;85.11
60589;BME280;46421;48.610;9.334;2023-03-25T00:55:46;97448.28;;;8.36;84.38
60589;BME280;46421;48.610;9.334;2023-03-25T00:58:11;97444.31;;;8.32;83.49
60589;BME280;46421;48.610;9.334;2023-03-25T01:00:36;97448.00;;;8.31;83.61
60589;BME280;46421;48.610;9.334;2023-03-25T01:03:02;97431.47;;;8.29;82.82
60589;BME280;46421;48.610;9.334;2023-03-25T01:05:28;97433.13;;;8.30;82.44
60589;BME280;46421;48.610;9.334;2023-03-25T01:07:54;97427.75;;;8.38;83.03
60589;BME280;46421;48.610;9.334;2023-03-25T01:10:20;97413.19;;;8.34;82.25
60589;BME280;46421;48.610;9.334;2023-03-25T01:12:46;97412.22;;;8.35;82.63
60589;BME280;46421;48.610;9.334;2023-03-25T01:15:11;97412.63;;;8.24;82.83
60589;BME280;46421;48.610;9.334;2023-03-25T01:17:36;97413.75;;;8.06;82.39
60589;BME280;46421;48.610;9.334;2023-03-25T01:20:02;97407.09;;;7.87;84.09
60589;BME280;46421;48.610;9.334;2023-03-25T01:22:30;97420.91;;;7.98;83.27
60589;BME280;46421;48.610;9.334;2023-03-25T01:24:56;97428.22;;;7.96;84.23
60589;BME280;46421;48.610;9.334;2023-03-25T01:27:21;97428.47;;;7.78;84.44
60589;BME280;46421;48.610;9.334;2023-03-25T01:29:48;97440.50;;;7.88;84.78
60589;BME280;46421;48.610;9.334;2023-03-25T01:32:14;97430.75;;;7.81;83.74
60589;BME280;46421;48.610;9.334;2023-03-25T01:34:40;97416.41;;;7.75;85.24
60589;BME280;46421;48.610;9.334;2023-03-25T01:37:06;97431.59;;;7.81;84.79
60589;BME280;46421;48.610;9.334;2023-03-25T01:39:32;97414.94;;;7.72;84.70
60589;BME280;46421;48.610;9.334;2023-03-25T01:41:57;97414.63;;;7.67;85.70
60589;BME280;46421;48.610;9.334;2023-03-25T01:46:50;97418.22;;;7.74;85.62
60589;BME280;46421;48.610;9.334;2023-03-25T01:49:41;97408.25;;;7.85;86.27
60589;BME280;46421;48.610;9.334;2023-03-25T01:52:17;97402.00;;;7.78;85.94
60589;BME280;46421;48.610;9.334;2023-03-25T01:54:46;97403.59;;;7.87;86.47
60589;BME280;46421;48.610;9.334;2023-03-25T01:57:16;97407.59;;;7.83;85.62
60589;BME280;46421;48.610;9.334;2023-03-25T01:59:43;97405.72;;;7.91;86.19
60589;BME280;46421;48.610;9.334;2023-03-25T02:02:10;97398.56;;;8.00;85.90
60589;BME280;46421;48.610;9.334;2023-03-25T02:04:52;97402.50;;;8.04;86.33
60589;BME280;46421;48.610;9.334;2023-03-25T02:07:27;97383.75;;;7.91;86.46
60589;BME280;46421;48.610;9.334;2023-03-25T02:09:58;97380.66;;;8.02;86.50
60589;BME280;46421;48.610;9.334;2023-03-25T02:12:24;97382.91;;;8.14;86.47
60589;BME280;46421;48.610;9.334;2023-03-25T02:14:50;97388.94;;;8.07;85.42
60589;BME280;46421;48.610;9.334;2023-03-25T02:23:46;97394.44;;;7.98;86.10
60589;BME280;46421;48.610;9.334;2023-03-25T02:29:36;97392.19;;;7.86;85.49
60589;BME280;46421;48.610;9.334;2023-03-25T02:32:54;97404.25;;;7.89;86.32
60589;BME280;46421;48.610;9.334;2023-03-25T02:35:25;97398.81;;;7.82;85.45
60589;BME280;46421;48.610;9.334;2023-03-25T02:38:18;97389.13;;;7.74;85.30
60589;BME280;46421;48.610;9.334;2023-03-25T02:43:33;97409.41;;;7.82;82.57
60589;BME280;46421;48.610;9.334;2023-03-25T02:46:08;97428.38;;;7.94;83.02
60589;BME280;46421;48.610;9.334;2023-03-25T02:48:43;97411.84;;;7.92;83.50
60589;BME280;46421;48.610;9.334;2023-03-25T02:51:16;97425.25;;;7.90;85.08
60589;BME280;46421;48.610;9.334;2023-03-25T02:53:45;97439.88;;;7.78;88.13
60589;BME280;46421;48.610;9.334;2023-03-25T02:56:14;97453.97;;;7.70;93.71
60589;BME280;46421;48.610;9.334;2023-03-25T02:58:43;97468.63;;;7.41;99.53
60589;BME280;46421;48.610;9.334;2023-03-25T03:01:09;97455.97;;;7.12;100.00
60589;BME280;46421;48.610;9.334;2023-03-25T03:03:34;97466.75;;;7.02;100.00
60589;BME280;46421;48.610;9.334;2023-03-25T03:06:02;97462.47;;;6.85;100.00
60589;BME280;46421;48.610;9.334;2023-03-25T03:30:44;97459.53;;;5.87;100.00
60589;BME280;46421;48.610;9.334;2023-03-25T03:35:48;97453.28;;;5.88;100.00
60589;BME280;46421;48.610;9.334;2023-03-25T03:38:18;97464.91;;;6.04;100.00
60589;BME280;46421;48.610;9.334;2023-03-25T03:40:50;97453.19;;;6.14;100.00
60589;BME280;46421;48.610;9.334;2023-03-25T03:43:23;97442.97;;;6.03;100.00
60589;BME280;46421;48.610;9.334;2023-03-25T03:45:54;97445.25;;;5.98;100.00
60589;BME280;46421;48.610;9.334;2023-03-25T03:48:42;97445.13;;;5.99;100.00
60589;BME280;46421;48.610;9.334;2023-03-25T03:51:16;97449.09;;;6.12;100.00
60589;BME280;46421;48.610;9.334;2023-03-25T03:54:17;97448.47;;;6.18;100.00
60589;BME280;46421;48.610;9.334;2023-03-25T03:56:57;97459.16;;;6.16;100.00
60589;BME280;46421;48.610;9.334;2023-03-25T04:00:06;97460.81;;;6.26;100.00
60589;BME280;46421;48.610;9.334;2023-03-25T04:02:56;97457.88;;;6.37;100.00
60589;BME280;46421;48.610;9.334;2023-03-25T04:05:25;97461.81;;;6.41;100.00
60589;BME280;46421;48.610;9.334;2023-03-25T04:08:01;97453.22;;;6.31;100.00
60589;BME280;46421;48.610;9.334;2023-03-25T04:13:17;97449.78;;;6.47;100.00
60589;BME280;46421;48.610;9.334;2023-03-25T04:15:44;97455.25;;;6.37;100.00
60589;BME280;46421;48.610;9.334;2023-03-25T04:18:09;97455.38;;;6.52;100.00
60589;BME280;46421;48.610;9.334;2023-03-25T04:20:36;97450.44;;;6.41;100.00
60589;BME280;46421;48.610;9.334;2023-03-25T04:23:02;97449.28;;;6.43;100.00
60589;BME280;46421;48.610;9.334;2023-03-25T04:25:33;97443.03;;;6.53;100.00
60589;BME280;46421;48.610;9.334;2023-03-25T04:27:59;97454.56;;;6.52;100.00
60589;BME280;46421;48.610;9.334;2023-03-25T04:30:26;97449.28;;;6.60;100.00
60589;BME280;46421;48.610;9.334;2023-03-25T04:32:52;97440.03;;;6.56;100.00
60589;BME280;46421;48.610;9.334;2023-03-25T04:35:18;97443.84;;;6.61;98.55
60589;BME280;46421;48.610;9.334;2023-03-25T04:37:45;97435.75;;;6.55;100.00
60589;BME280;46421;48.610;9.334;2023-03-25T04:40:14;97439.72;;;6.59;99.43
60589;BME280;46421;48.610;9.334;2023-03-25T04:42:44;97444.66;;;6.54;100.00
60589;BME280;46421;48.610;9.334;2023-03-25T04:45:11;97445.66;;;6.44;99.69
60589;BME280;46421;48.610;9.334;2023-03-25T04:47:41;97438.72;;;6.43;99.11
60589;BME280;46421;48.610;9.334;2023-03-25T04:50:21;97454.72;;;6.42;99.64
60589;BME280;46421;48.610;9.334;2023-03-25T04:52:48;97456.38;;;6.35;99.62
60589;BME280;46421;48.610;9.334;2023-03-25T04:55:14;97452.91;;;6.34;100.00
60589;BME280;46421;48.610;9.334;2023-03-25T04:57:47;97450.75;;;6.38;100.00
60589;BME280;46421;48.610;9.334;2023-03-25T05:00:16;97450.44;;;6.41;99.97
60589;BME280;46421;48.610;9.334;2023-03-25T05:02:47;97458.38;;;6.32;100.00
60589;BME280;46421;48.610;9.334;2023-03-25T05:05:14;97468.44;;;6.37;100.00
60589;BME280;46421;48.610;9.334;2023-03-25T05:07:46;97459.00;;;6.35;99.09
60589;BME280;46421;48.610;9.334;2023-03-25T05:10:14;97474.03;;;6.42;99.79
60589;BME280;46421;48.610;9.334;2023-03-25T05:12:39;97473.19;;;6.42;99.20
60589;BME280;46421;48.610;9.334;2023-03-25T05:15:06;97469.72;;;6.33;99.09
60589;BME280;46421;48.610;9.334;2023-03-25T05:17:31;97464.78;;;6.30;98.49
60589;BME280;46421;48.610;9.334;2023-03-25T05:19:57;97466.78;;;6.36;97.88
60589;BME280;46421;48.610;9.334;2023-03-25T05:22:22;97471.06;;;6.37;97.47
60589;BME280;46421;48.610;9.334;2023-03-25T05:24:47;97468.75;;;6.42;97.25
60589;BME280;46421;48.610;9.334;2023-03-25T05:27:14;97477.19;;;6.46;98.63
60589;BME280;46421;48.610;9.334;2023-03-25T05:29:44;97476.34;;;6.54;95.21
60589;BME280;46421;48.610;9.334;2023-03-25T05:32:10;97486.59;;;6.57;95.62
60589;BME280;46421;48.610;9.334;2023-03-25T05:34:38;97492.69;;;6.57;95.13
60589;BME280;46421;48.610;9.334;2023-03-25T05:37:03;97496.16;;;6.58;94.46
60589;BME280;46421;48.610;9.334;2023-03-25T05:39:29;97494.19;;;6.68;94.73
60589;BME280;46421;48.610;9.334;2023-03-25T05:41:55;97490.53;;;6.69;94.91
60589;BME280;46421;48.610;9.334;2023-03-25T05:44:27;97494.34;;;6.83;92.77
60589;BME280;46421;48.610;9.334;2023-03-25T05:46:52;97498.47;;;6.77;92.94
60589;BME280;46421;48.610;9.334;2023-03-25T05:49:18;97499.63;;;6.91;92.87
60589;BME280;46421;48.610;9.334;2023-03-25T05:51:43;97489.56;;;6.87;92.30
60589;BME280;46421;48.610;9.334;2023-03-25T05:54:09;97487.09;;;6.85;91.73
60589;BME280;46421;48.610;9.334;2023-03-25T05:56:34;97500.59;;;6.99;90.67
60589;BME280;46421;48.610;9.334;2023-03-25T05:59:01;97503.41;;;7.14;90.58
60589;BME280;46421;48.610;9.334;2023-03-25T06:01:27;97474.66;;;7.02;88.80
60589;BME280;46421;48.610;9.334;2023-03-25T06:03:53;97498.09;;;7.30;89.12
60589;BME280;46421;48.610;9.334;2023-03-25T06:06:19;97497.78;;;7.73;86.36
60589;BME280;46421;48.610;9.334;2023-03-25T06:08:47;97491.41;;;7.90;84.12
60589;BME280;46421;48.610;9.334;2023-03-25T06:11:15;97504.75;;;7.66;83.68
60589;BME280;46421;48.610;9.334;2023-03-25T06:13:41;97491.09;;;7.54;84.98
60589;BME280;46421;48.610;9.334;2023-03-25T06:16:16;97507.78;;;7.46;84.42
60589;BME280;46421;48.610;9.334;2023-03-25T06:18:46;97505.53;;;7.35;85.23
60589;BME280;46421;48.610;9.334;2023-03-25T06:21:20;97519.69;;;7.50;85.04
60589;BME280;46421;48.610;9.334;2023-03-25T06:23:46;97516.88;;;7.52;83.57
60589;BME280;46421;48.610;9.334;2023-03-25T06:26:17;97518.59;;;7.76;82.73
60589;BME280;46421;48.610;9.334;2023-03-25T06:28:43;97518.69;;;7.99;81.76
60589;BME280;46421;48.610;9.334;2023-03-25T06:31:14;97524.56;;;8.10;79.35
60589;BME280;46421;48.610;9.334;2023-03-25T06:33:46;97520.94;;;8.11;79.65
60589;BME280;46421;48.610;9.334;2023-03-25T06:36:13;97528.44;;;7.99;79.54
60589;BME280;46421;48.610;9.334;2023-03-25T06:38:43;97536.66;;;7.64;84.44
60589;BME280;46421;48.610;9.334;2023-03-25T06:41:09;97528.75;;;7.56;84.34
60589;BME280;46421;48.610;9.334;2023-03-25T06:43:35;97522.84;;;7.46;83.05
60589;BME280;46421;48.610;9.334;2023-03-25T06:46:00;97523.28;;;8.05;78.00
60589;BME280;46421;48.610;9.334;2023-03-25T06:48:26;97517.72;;;10.06;70.54
60589;BME280;46421;48.610;9.334;2023-03-25T06:50:51;97503.41;;;11.09;64.68
60589;BME280;46421;48.610;9.334;2023-03-25T06:53:17;97508.53;;;12.09;59.99
60589;BME280;46421;48.610;9.334;2023-03-25T06:55:43;97500.25;;;12.59;58.56
60589;BME280;46421;48.610;9.334;2023-03-25T06:58:09;97505.78;;;13.58;55.29
60589;BME280;46421;48.610;9.334;2023-03-25T07:00:35;97517.22;;;12.31;57.83
60589;BME280;46421;48.610;9.334;2023-03-25T07:03:00;97513.53;;;9.97;65.28
60589;BME280;46421;48.610;9.334;2023-03-25T07:05:26;97515.44;;;10.77;64.59
60589;BME280;46421;48.610;9.334;2023-03-25T07:07:51;97520.00;;;10.61;62.98
60589;BME280;46421;48.610;9.334;2023-03-25T07:10:17;97519.59;;;11.71;59.85
60589;BME280;46421;48.610;9.334;2023-03-25T07:12:42;97501.91;;;9.83;66.89
60589;BME280;46421;48.610;9.334;2023-03-25T07:15:08;97530.94;;;9.70;70.94
60589;BME280;46421;48.610;9.334;2023-03-25T07:17:34;97512.44;;;9.31;72.57
60589;BME280;46421;48.610;9.334;2023-03-25T07:19:59;97517.78;;;10.65;66.54
60589;BME280;46421;48.610;9.334;2023-03-25T07:22:25;97510.75;;;12.74;59.45
60589;BME280;46421;48.610;9.334;2023-03-25T07:24:51;97507.50;;;10.25;64.92
60589;BME280;46421;48.610;9.334;2023-03-25T07:27:16;97522.31;;;9.38;70.68
60589;BME280;46421;48.610;9.334;2023-03-25T07:29:42;97531.22;;;9.07;72.97
60589;BME280;46421;48.610;9.334;2023-03-25T07:32:08;97524.22;;;9.14;74.81
60589;BME280;46421;48.610;9.334;2023-03-25T07:34:33;97516.31;;;9.59;73.75
60589;BME280;46421;48.610;9.334;2023-03-25T07:36:59;97524.16;;;9.97;71.06
60589;BME280;46421;48.610;9.334;2023-03-25T07:39:24;97519.97;;;10.83;67.32
60589;BME280;46421;48.610;9.334;2023-03-25T07:41:51;97514.84;;;12.63;61.19
60589;BME280;46421;48.610;9.334;2023-03-25T07:44:17;97518.38;;;11.74;62.68
60589;BME280;46421;48.610;9.334;2023-03-25T07:46:45;97517.00;;;10.93;65.45
60589;BME280;46421;48.610;9.334;2023-03-25T07:49:10;97515.38;;;11.20;62.72
60589;BME280;46421;48.610;9.334;2023-03-25T07:51:36;97513.22;;;13.29;54.83
60589;BME280;46421;48.610;9.334;2023-03-25T07:54:01;97509.88;;;14.65;52.63
60589;BME280;46421;48.610;9.334;2023-03-25T07:56:26;97519.28;;;15.94;48.77
60589;BME280;46421;48.610;9.334;2023-03-25T07:58:52;97519.25;;;16.93;46.67
60589;BME280;46421;48.610;9.334;2023-03-25T08:01:17;97522.94;;;17.34;45.20
60589;BME280;46421;48.610;9.334;2023-03-25T08:03:42;97524.66;;;13.84;53.88
60589;BME280;46421;48.610;9.334;2023-03-25T08:06:08;97518.75;;;13.21;55.84
60589;BME280;46421;48.610;9.334;2023-03-25T08:08:33;97521.16;;;16.73;47.73
60589;BME280;46421;48.610;9.334;2023-03-25T08:10:59;97511.78;;;14.13;52.22
60589;BME280;46421;48.610;9.334;2023-03-25T08:13:26;97506.91;;;14.48;52.23
60589;BME280;46421;48.610;9.334;2023-03-25T08:15:51;97506.75;;;16.25;48.45
60589;BME280;46421;48.610;9.334;2023-03-25T08:18:17;97508.97;;;13.94;53.87
60589;BME280;46421;48.610;9.334;2023-03-25T08:20:43;97515.69;;;12.97;56.63
60589;BME280;46421;48.610;9.334;2023-03-25T08:23:08;97508.19;;;13.80;54.48
60589;BME280;46421;48.610;9.334;2023-03-25T08:25:35;97514.59;;;13.72;54.69
60589;BME280;46421;48.610;9.334;2023-03-25T08:28:00;97518.16;;;12.17;58.87
60589;BME280;46421;48.610;9.334;2023-03-25T08:30:26;97514.63;;;12.78;58.09
60589;BME280;46421;48.610;9.334;2023-03-25T08:32:51;97521.63;;;12.93;57.74
60589;BME280;46421;48.610;9.334;2023-03-25T08:35:22;97516.69;;;12.01;58.44
60589;BME280;46421;48.610;9.334;2023-03-25T08:37:48;97524.69;;;11.09;62.01
60589;BME280;46421;48.610;9.334;2023-03-25T08:40:14;97528.56;;;10.26;66.78
60589;BME280;46421;48.610;9.334;2023-03-25T08:42:41;97526.28;;;10.23;68.78
60589;BME280;46421;48.610;9.334;2023-03-25T08:45:07;97520.44;;;10.13;66.41
60589;BME280;46421;48.610;9.334;2023-03-25T08:47:33;97519.69;;;10.19;68.90
60589;BME280;46421;48.610;9.334;2023-03-25T08:49:58;97518.50;;;9.55;69.71
60589;BME280;46421;48.610;9.334;2023-03-25T08:52:23;97523.41;;;9.58;71.83
60589;BME280;46421;48.610;9.334;2023-03-25T08:54:49;97514.34;;;9.53;74.29
60589;BME280;46421;48.610;9.334;2023-03-25T08:57:15;97523.44;;;9.73;77.38
60589;BME280;46421;48.610;9.334;2023-03-25T08:59:40;97515.72;;;9.93;73.35
60589;BME280;46421;48.610;9.334;2023-03-25T09:02:06;97511.00;;;10.25;72.02
60589;BME280;46421;48.610;9.334;2023-03-25T09:04:31;97513.97;;;9.86;72.69
60589;BME280;46421;48.610;9.334;2023-03-25T09:06:56;97504.22;;;9.86;71.52
60589;BME280;46421;48.610;9.334;2023-03-25T09:09:22;97501.81;;;9.91;71.14
60589;BME280;46421;48.610;9.334;2023-03-25T09:11:48;97492.63;;;11.17;69.32
60589;BME280;46421;48.610;9.334;2023-03-25T09:14:13;97489.59;;;12.93;60.48
60589;BME280;46421;48.610;9.334;2023-03-25T09:16:39;97484.69;;;13.17;57.37
60589;BME280;46421;48.610;9.334;2023-03-25T09:19:05;97469.75;;;12.00;57.68
60589;BME280;46421;48.610;9.334;2023-03-25T09:21:30;97490.16;;;12.48;60.09
60589;BME280;46421;48.610;9.334;2023-03-25T09:23:56;97480.75;;;12.52;57.05
60589;BME280;46421;48.610;9.334;2023-03-25T09:26:21;97481.88;;;12.09;59.45
60589;BME280;46421;48.610;9.334;2023-03-25T09:28:47;97475.75;;;11.32;63.16
60589;BME280;46421;48.610;9.334;2023-03-25T09:31:12;97472.41;;;10.95;63.98
60589;BME280;46421;48.610;9.334;2023-03-25T09:33:39;97476.81;;;11.09;65.39
60589;BME280;46421;48.610;9.334;2023-03-25T09:36:04;97472.94;;;13.31;57.96
60589;BME280;46421;48.610;9.334;2023-03-25T09:38:31;97469.50;;;12.77;59.26
60589;BME280;46421;48.610;9.334;2023-03-25T09:40:56;97455.75;;;12.73;59.10
60589;BME280;46421;48.610;9.334;2023-03-25T09:46:03;97469.25;;;11.83;60.38
60589;BME280;46421;48.610;9.334;2023-03-25T09:48:36;97484.69;;;11.24;65.20
60589;BME280;46421;48.610;9.334;2023-03-25T09:51:04;97475.41;;;10.05;73.86
60589;BME280;46421;48.610;9.334;2023-03-25T09:56:10;97480.81;;;9.96;81.38
60589;BME280;46421;48.610;9.334;2023-03-25T09:58:47;97478.47;;;9.87;80.77
60589;BME280;46421;48.610;9.334;2023-03-25T10:02:28;97471.66;;;9.62;80.27
60589;BME280;46421;48.610;9.334;2023-03-25T10:04:45;97479.50;;;12.34;67.81
60589;BME280;46421;48.610;9.334;2023-03-25T10:10:07;97469.16;;;11.28;71.74
60589;BME280;46421;48.610;9.334;2023-03-25T10:18:15;97503.13;;;9.51;86.95
60589;BME280;46421;48.610;9.334;2023-03-25T10:20:46;97492.66;;;9.49;90.44
60589;BME280;46421;48.610;9.334;2023-03-25T10:23:24;97494.22;;;9.28;94.52
60589;BME280;46421;48.610;9.334;2023-03-25T10:25:58;97500.75;;;9.02;94.58
60589;BME280;46421;48.610;9.334;2023-03-25T10:28:36;97495.75;;;9.08;94.94
60589;BME280;46421;48.610;9.334;2023-03-25T10:31:04;97482.19;;;9.41;90.47
60589;BME280;46421;48.610;9.334;2023-03-25T10:33:44;97479.81;;;9.97;88.93
60589;BME280;46421;48.610;9.334;2023-03-25T10:36:16;97504.47;;;9.46;94.02
60589;BME280;46421;48.610;9.334;2023-03-25T10:38:45;97507.94;;;9.17;94.44
60589;BME280;46421;48.610;9.334;2023-03-25T10:41:24;97509.47;;;8.50;100.00
60589;BME280;46421;48.610;9.334;2023-03-25T10:43:50;97507.16;;;9.61;95.66
60589;BME280;46421;48.610;9.334;2023-03-25T10:46:27;97505.53;;;15.03;66.44
60589;BME280;46421;48.610;9.334;2023-03-25T10:48:53;97493.09;;;17.95;56.50
60589;BME280;46421;48.610;9.334;2023-03-25T10:51:22;97486.19;;;16.92;57.54
60589;BME280;46421;48.610;9.334;2023-03-25T10:53:50;97497.22;;;18.55;53.62
60589;BME280;46421;48.610;9.334;2023-03-25T10:56:28;97505.44;;;18.77;52.33
60589;BME280;46421;48.610;9.334;2023-03-25T10:58:56;97495.34;;;17.27;51.48
60589;BME280;46421;48.610;9.334;2023-03-25T11:03:58;97476.53;;;15.62;54.97
60589;BME280;46421;48.610;9.334;2023-03-25T11:06:27;97479.16;;;14.43;60.83
60589;BME280;46421;48.610;9.334;2023-03-25T11:09:14;97479.22;;;15.81;57.29
60589;BME280;46421;48.610;9.334;2023-03-25T11:11:42;97478.22;;;18.45;53.24
60589;BME280;46421;48.610;9.334;2023-03-25T11:14:09;97486.28;;;14.88;56.06
60589;BME280;46421;48.610;9.334;2023-03-25T11:19:14;97481.59;;;13.26;62.67
60589;BME280;46421;48.610;9.334;2023-03-25T11:21:45;97485.22;;;13.66;61.54
60589;BME280;46421;48.610;9.334;2023-03-25T11:24:13;97488.34;;;14.15;58.07
60589;BME280;46421;48.610;9.334;2023-03-25T11:26:45;97469.19;;;15.14;54.71
60589;BME280;46421;48.610;9.334;2023-03-25T11:29:16;97478.03;;;14.57;53.72
60589;BME280;46421;48.610;9.334;2023-03-25T11:31:42;97484.44;;;12.38;59.72
60589;BME280;46421;48.610;9.334;2023-03-25T11:36:47;97482.38;;;11.84;60.84
60589;BME280;46421;48.610;9.334;2023-03-25T11:41:48;97496.59;;;11.00;63.59
60589;BME280;46421;48.610;9.334;2023-03-25T11:44:20;97499.63;;;10.97;65.97
60589;BME280;46421;48.610;9.334;2023-03-25T11:46:49;97509.19;;;11.48;66.26
60589;BME280;46421;48.610;9.334;2023-03-25T11:49:19;97503.09;;;12.38;64.51
60589;BME280;46421;48.610;9.334;2023-03-25T11:51:48;97462.72;;;17.70;47.34
60589;BME280;46421;48.610;9.334;2023-03-25T11:54:15;97473.16;;;20.62;41.39
60589;BME280;46421;48.610;9.334;2023-03-25T11:56:43;97472.09;;;19.30;42.01
60589;BME280;46421;48.610;9.334;2023-03-25T12:01:48;97458.81;;;13.96;54.32
60589;BME280;46421;48.610;9.334;2023-03-25T12:07:07;97463.53;;;12.88;56.24
60589;BME280;46421;48.610;9.334;2023-03-25T12:09:34;97463.56;;;12.81;54.16
60589;BME280;46421;48.610;9.334;2023-03-25T12:15:07;97455.75;;;19.19;38.99
60589;BME280;46421;48.610;9.334;2023-03-25T12:17:58;97450.66;;;21.16;38.41
60589;BME280;46421;48.610;9.334;2023-03-25T12:20:36;97431.59;;;18.73;39.53
60589;BME280;46421;48.610;9.334;2023-03-25T12:23:22;97444.81;;;16.57;43.35
60589;BME280;46421;48.610;9.334;2023-03-25T12:28:39;97455.84;;;15.51;48.61
60589;BME280;46421;48.610;9.334;2023-03-25T12:39:12;97460.47;;;12.85;55.05
60589;BME280;46421;48.610;9.334;2023-03-25T12:41:52;97463.13;;;12.71;53.61
60589;BME280;46421;48.610;9.334;2023-03-25T12:44:25;97467.03;;;12.95;54.19
60589;BME280;46421;48.610;9.334;2023-03-25T12:52:58;97479.63;;;14.33;55.73
60589;BME280;46421;48.610;9.334;2023-03-25T12:55:41;97490.94;;;12.15;58.80
60589;BME280;46421;48.610;9.334;2023-03-25T13:01:06;97496.31;;;11.51;57.20
60589;BME280;46421;48.610;9.334;2023-03-25T13:03:39;97477.13;;;14.38;53.33
60589;BME280;46421;48.610;9.334;2023-03-25T13:06:27;97489.44;;;14.46;50.79
60589;BME280;46421;48.610;9.334;2023-03-25T13:09:05;97471.75;;;16.20;46.93
60589;BME280;46421;48.610;9.334;2023-03-25T13:11:40;97482.56;;;16.13;46.80
60589;BME280;46421;48.610;9.334;2023-03-25T13:14:20;97481.22;;;17.07;43.99
60589;BME280;46421;48.610;9.334;2023-03-25T13:16:50;97485.16;;;16.93;45.46
60589;BME280;46421;48.610;9.334;2023-03-25T13:19:19;97489.13;;;16.18;45.19
60589;BME280;46421;48.610;9.334;2023-03-25T13:21:59;97487.72;;;16.15;44.78
60589;BME280;46421;48.610;9.334;2023-03-25T13:24:38;97496.88;;;15.01;46.76
60589;BME280;46421;48.610;9.334;2023-03-25T13:27:09;97482.59;;;13.32;51.32
60589;BME280;46421;48.610;9.334;2023-03-25T13:29:38;97480.91;;;12.37;54.38
60589;BME280;46421;48.610;9.334;2023-03-25T13:32:11;97496.81;;;11.62;59.59
60589;BME280;46421;48.610;9.334;2023-03-25T13:34:46;61681.44;;;-147.32;100.00
60589;BME280;46421;48.610;9.334;2023-03-25T13:37:23;61681.44;;;-147.32;100.00
60589;BME280;46421;48.610;9.334;2023-03-25T13:42:52;61681.44;;;-147.32;100.00
60589;BME280;46421;48.610;9.334;2023-03-25T13:45:21;61681.44;;;-147.32;100.00
60589;BME280;46421;48.610;9.334;2023-03-25T13:50:36;61681.44;;;-147.32;100.00
60589;BME280;46421;48.610;9.334;2023-03-25T13:58:56;61681.44;;;-147.32;100.00
60589;BME280;46421;48.610;9.334;2023-03-25T14:09:58;61681.44;;;-147.32;100.00
60589;BME280;46421;48.610;9.334;2023-03-25T14:12:28;61681.44;;;-147.32;100.00
60589;BME280;46421;48.610;9.334;2023-03-25T14:15:00;61681.44;;;-147.32;100.00
60589;BME280;46421;48.610;9.334;2023-03-25T14:17:27;61681.44;;;-147.32;100.00
60589;BME280;46421;48.610;9.334;2023-03-25T14:19:57;61681.44;;;-147.32;100.00
60589;BME280;46421;48.610;9.334;2023-03-25T14:22:26;61681.44;;;-147.32;100.00
60589;BME280;46421;48.610;9.334;2023-03-25T14:24:53;61681.44;;;-147.32;100.00
60589;BME280;46421;48.610;9.334;2023-03-25T14:27:35;61681.44;;;-147.32;100.00
60589;BME280;46421;48.610;9.334;2023-03-25T14:30:22;61681.44;;;-147.32;100.00
60589;BME280;46421;48.610;9.334;2023-03-25T14:32:49;61681.44;;;-147.32;100.00
60589;BME280;46421;48.610;9.334;2023-03-25T14:43:21;61681.44;;;-147.32;100.00
60589;BME280;46421;48.610;9.334;2023-03-25T14:48:42;61681.44;;;-147.32;100.00
60589;BME280;46421;48.610;9.334;2023-03-25T14:51:19;61681.44;;;-147.32;100.00
60589;BME280;46421;48.610;9.334;2023-03-25T14:56:19;61681.44;;;-147.32;100.00
60589;BME280;46421;48.610;9.334;2023-03-25T14:58:50;61681.44;;;-147.32;100.00
60589;BME280;46421;48.610;9.334;2023-03-25T15:01:18;61681.44;;;-147.32;100.00
60589;BME280;46421;48.610;9.334;2023-03-25T15:03:44;61681.44;;;-147.32;100.00
60589;BME280;46421;48.610;9.334;2023-03-25T15:06:17;61681.44;;;-147.32;100.00
60589;BME280;46421;48.610;9.334;2023-03-25T15:08:51;61681.44;;;-147.32;100.00
60589;BME280;46421;48.610;9.334;2023-03-25T15:11:25;61681.44;;;-147.32;100.00
60589;BME280;46421;48.610;9.334;2023-03-25T15:13:55;61681.44;;;-147.32;100.00
60589;BME280;46421;48.610;9.334;2023-03-25T15:17:01;61681.44;;;-147.32;100.00
60589;BME280;46421;48.610;9.334;2023-03-25T15:22:23;61681.44;;;-147.32;100.00
60589;BME280;46421;48.610;9.334;2023-03-25T15:24:52;61681.44;;;-147.32;100.00
60589;BME280;46421;48.610;9.334;2023-03-25T15:27:50;61681.44;;;-147.32;100.00
60589;BME280;46421;48.610;9.334;2023-03-25T15:30:47;61681.44;;;-147.32;100.00